Time;durP1;ratioP1;P1;durP2;ratioP2;P2;SDS_P1;SDS_P2;PMS_P1;PMS_P2;Temp;Humidity;BMP_temperature;BMP_pressure;BME280_temperature;BME280_humidity;BME280_pressure;Samples;Min_cycle;Max_cycle;Signal;HPM_P1;HPM_P2
2023/02/05 00:00:08;;;;;;;6.20;1.98;;;;;;;5.76;44.68;99806.59;5104580;27;20040;-93
2023/02/05 00:02:34;;;;;;;6.28;2.00;;;;;;;5.75;45.26;99803.97;5106985;28;20044;-92
2023/02/05 00:05:00;;;;;;;2.63;1.88;;;;;;;5.66;46.80;99798.59;5111750;27;20130;-94
2023/02/05 00:07:26;;;;;;;7.30;2.00;;;;;;;5.55;45.28;99780.94;5117746;27;20042;-93
2023/02/05 00:09:53;;;;;;;4.78;2.03;;;;;;;5.71;44.29;99791.63;5107260;27;20122;-91
2023/02/05 00:12:19;;;;;;;5.70;2.13;;;;;;;5.77;44.90;99799.59;5111534;28;20067;-94
2023/02/05 00:14:45;;;;;;;5.30;2.20;;;;;;;5.60;45.02;99774.81;5102817;28;20185;-91
2023/02/05 00:17:11;;;;;;;6.78;2.42;;;;;;;5.54;44.66;99789.69;5100215;28;20068;-92
2023/02/05 00:19:37;;;;;;;8.68;2.03;;;;;;;5.42;44.90;99775.50;5101504;28;20044;-94
2023/02/05 00:22:03;;;;;;;6.25;2.95;;;;;;;5.53;44.48;99801.13;5097683;28;20038;-91
2023/02/05 00:24:28;;;;;;;7.60;2.30;;;;;;;5.52;45.19;99807.25;5104900;28;20039;-92
2023/02/05 00:26:56;;;;;;;5.68;2.00;;;;;;;5.48;43.98;99789.63;5106583;28;20081;-92
2023/02/05 00:29:21;;;;;;;4.70;2.20;;;;;;;5.55;43.77;99815.22;5101528;28;20089;-92
2023/02/05 00:31:48;;;;;;;5.05;1.90;;;;;;;5.51;44.26;99816.06;5103201;28;20040;-93
2023/02/05 00:34:14;;;;;;;5.53;2.30;;;;;;;5.47;44.82;99806.34;5107766;28;20454;-91
2023/02/05 00:36:40;;;;;;;10.65;2.45;;;;;;;5.31;44.82;99799.13;5109021;28;20122;-94
2023/02/05 00:39:07;;;;;;;3.65;2.00;;;;;;;5.38;45.26;99827.34;5106047;28;20043;-93
2023/02/05 00:41:33;;;;;;;4.68;2.00;;;;;;;5.31;45.38;99821.13;5100526;28;20050;-94
2023/02/05 00:44:01;;;;;;;5.03;2.05;;;;;;;5.09;46.20;99809.44;5105259;28;20035;-93
2023/02/05 00:46:26;;;;;;;5.88;2.10;;;;;;;5.14;45.95;99823.56;5104236;28;20515;-91
2023/02/05 00:48:52;;;;;;;5.10;2.45;;;;;;;5.25;45.30;99828.97;5107865;28;20135;-93
2023/02/05 00:51:18;;;;;;;3.80;2.17;;;;;;;5.23;45.19;99820.16;5106909;28;20122;-93
2023/02/05 00:53:44;;;;;;;4.15;2.13;;;;;;;5.33;45.66;99832.59;5098234;28;20062;-91
2023/02/05 00:56:10;;;;;;;4.30;2.00;;;;;;;5.18;45.81;99820.97;5100608;28;20043;-91
2023/02/05 00:58:36;;;;;;;6.45;2.20;;;;;;;4.96;46.44;99788.19;5104688;28;20386;-92
2023/02/05 01:01:04;;;;;;;6.00;2.33;;;;;;;5.07;46.33;99829.63;5103952;28;20044;-93
2023/02/05 01:03:30;;;;;;;7.68;2.60;;;;;;;4.94;46.43;99827.69;5105712;28;20047;-93
2023/02/05 01:05:56;;;;;;;6.65;2.05;;;;;;;4.97;46.17;99822.47;5101968;28;20040;-93
2023/02/05 01:08:22;;;;;;;3.13;1.90;;;;;;;4.94;46.01;99810.16;5104699;28;20040;-91
2023/02/05 01:10:51;;;;;;;4.68;2.10;;;;;;;5.00;45.78;99811.97;5104222;28;20431;-91
2023/02/05 01:13:18;;;;;;;12.35;2.20;;;;;;;5.15;45.89;99837.63;5101557;28;20044;-92
2023/02/05 01:15:43;;;;;;;4.93;2.15;;;;;;;5.02;46.38;99820.78;5114351;27;20040;-91
2023/02/05 01:18:11;;;;;;;4.18;1.83;;;;;;;4.94;46.39;99809.25;5097275;28;20046;-91
2023/02/05 01:20:37;;;;;;;7.05;2.28;;;;;;;4.98;46.16;99804.91;5100517;28;20127;-92
2023/02/05 01:23:03;;;;;;;5.38;2.10;;;;;;;5.00;46.50;99821.63;5094718;28;20051;-91
2023/02/05 01:25:29;;;;;;;4.28;2.08;;;;;;;4.87;47.32;99797.75;5097405;28;20040;-92
2023/02/05 01:27:55;;;;;;;5.82;2.20;;;;;;;4.91;47.15;99818.00;5096348;28;20516;-92
2023/02/05 01:30:21;;;;;;;5.80;2.33;;;;;;;4.78;47.63;99818.72;5098860;28;20050;-93
2023/02/05 01:32:47;;;;;;;8.32;2.40;;;;;;;4.74;48.09;99816.91;5098955;28;20036;-93
2023/02/05 01:35:14;;;;;;;3.78;2.05;;;;;;;4.65;48.26;99822.94;5094652;28;20097;-91
2023/02/05 01:37:40;;;;;;;12.55;2.30;;;;;;;4.55;48.55;99812.25;5105826;28;20174;-91
2023/02/05 01:40:06;;;;;;;7.35;2.05;;;;;;;4.66;48.73;99832.63;5095330;28;20483;-91
2023/02/05 01:42:32;;;;;;;5.88;2.10;;;;;;;4.60;48.27;99816.72;5102766;28;20446;-91
2023/02/05 01:45:49;;;;;;;5.55;2.15;;;;;;;4.61;48.52;99828.16;5095165;28;20044;-89
2023/02/05 01:48:19;;;;;;;3.97;1.92;;;;;;;4.52;48.70;99815.72;5100089;28;20036;-92
2023/02/05 01:50:50;;;;;;;8.18;2.45;;;;;;;4.55;49.00;99823.66;5101911;28;20044;-92
2023/02/05 01:53:20;;;;;;;5.95;2.50;;;;;;;4.44;48.60;99807.72;5099478;28;20042;-92
2023/02/05 01:55:51;;;;;;;5.80;2.30;;;;;;;4.54;48.46;99835.09;5096793;28;20039;-92
2023/02/05 01:58:17;;;;;;;5.40;2.60;;;;;;;4.53;48.46;99828.94;5098897;28;20063;-91
2023/02/05 02:00:43;;;;;;;6.07;2.33;;;;;;;4.42;48.86;99796.25;5098526;28;20117;-91
2023/02/05 02:03:12;;;;;;;6.13;2.13;;;;;;;4.32;49.22;99800.53;5098949;28;20408;-92
2023/02/05 02:05:38;;;;;;;7.95;2.42;;;;;;;4.41;49.01;99810.31;5127826;27;20509;-92
2023/02/05 02:08:05;;;;;;;8.23;1.90;;;;;;;4.45;48.61;99809.50;5099650;28;20044;-92
2023/02/05 02:10:33;;;;;;;4.88;2.17;;;;;;;4.42;48.44;99811.19;5097309;28;20497;-93
2023/02/05 02:13:00;;;;;;;4.90;1.85;;;;;;;4.53;48.68;99825.41;5106122;28;20050;-91
2023/02/05 02:15:27;;;;;;;5.78;1.98;;;;;;;4.49;48.73;99824.47;5101413;28;20039;-92
2023/02/05 02:18:24;;;;;;;4.03;2.08;;;;;;;4.50;49.07;99826.25;5101365;28;20044;-94
2023/02/05 02:20:51;;;;;;;9.10;2.30;;;;;;;4.44;49.53;99826.16;5100730;28;20538;-90
2023/02/05 02:23:34;;;;;;;7.85;2.13;;;;;;;4.33;50.08;99819.84;5103471;28;20135;-91
2023/02/05 02:26:21;;;;;;;6.50;2.17;;;;;;;4.31;50.41;99845.25;5106152;28;20378;-92
2023/02/05 02:28:51;;;;;;;8.95;2.30;;;;;;;4.15;50.83;99836.25;5102628;28;20062;-92
2023/02/05 02:31:24;;;;;;;13.60;2.30;;;;;;;4.06;50.80;99825.59;5105636;28;20042;-93
2023/02/05 02:33:59;;;;;;;6.43;2.20;;;;;;;3.97;51.31;99841.19;5105631;28;20050;-91
2023/02/05 02:36:30;;;;;;;7.07;2.63;;;;;;;3.81;51.80;99835.69;5098282;28;20060;-93
2023/02/05 02:39:06;;;;;;;5.32;2.70;;;;;;;3.79;51.66;99834.75;5103121;28;20047;-92
2023/02/05 02:41:40;;;;;;;7.65;2.10;;;;;;;3.82;52.41;99853.25;5100451;28;20069;-93
2023/02/05 02:44:11;;;;;;;4.63;2.10;;;;;;;3.75;52.51;99859.25;5107212;28;20419;-88
2023/02/05 02:46:41;;;;;;;4.78;2.90;;;;;;;3.59;52.86;99846.69;5106633;28;20039;-93
2023/02/05 02:49:11;;;;;;;5.88;2.38;;;;;;;3.65;52.75;99846.81;5104224;28;20054;-92
2023/02/05 02:51:39;;;;;;;6.25;2.10;;;;;;;3.61;52.63;99855.50;5098813;28;20050;-92
2023/02/05 02:54:09;;;;;;;5.88;2.38;;;;;;;3.68;52.38;99860.00;5101602;28;20043;-92
2023/02/05 02:56:38;;;;;;;6.18;2.45;;;;;;;3.34;53.35;99835.72;5101548;28;20049;-92
2023/02/05 02:59:09;;;;;;;4.22;1.83;;;;;;;3.31;53.22;99832.13;5106655;28;20047;-93
2023/02/05 03:01:40;;;;;;;4.43;2.10;;;;;;;3.42;52.95;99841.13;5111278;28;20101;-93
2023/02/05 03:04:10;;;;;;;6.07;2.20;;;;;;;3.49;52.49;99862.31;5104389;28;20131;-92
2023/02/05 03:06:39;;;;;;;8.00;2.30;;;;;;;3.48;52.87;99855.25;5105576;28;20032;-90
2023/02/05 03:09:09;;;;;;;7.75;2.50;;;;;;;3.56;52.49;99862.44;5101763;28;20497;-92
2023/02/05 03:11:35;;;;;;;4.55;1.95;;;;;;;3.50;52.16;99847.41;5100188;28;20482;-92
2023/02/05 03:14:01;;;;;;;7.25;2.33;;;;;;;3.56;52.63;99857.16;5101481;28;20036;-92
2023/02/05 03:16:28;;;;;;;9.10;2.17;;;;;;;3.68;52.18;99870.53;5105364;28;20069;-93
2023/02/05 03:18:55;;;;;;;4.57;2.20;;;;;;;3.53;52.19;99842.19;5111248;27;20127;-92
2023/02/05 03:21:24;;;;;;;5.88;2.35;;;;;;;3.39;52.85;99846.31;5122620;27;20046;-91
2023/02/05 03:23:50;;;;;;;6.22;2.15;;;;;;;3.46;53.11;99864.88;5106535;27;20069;-92
2023/02/05 03:26:24;;;;;;;7.95;2.10;;;;;;;3.37;53.55;99866.44;5105963;28;20055;-93
2023/02/05 03:28:51;;;;;;;3.33;1.98;;;;;;;3.32;53.64;99873.34;5108644;27;20039;-92
2023/02/05 03:31:19;;;;;;;4.93;2.45;;;;;;;3.40;53.34;99871.75;5109617;27;20039;-91
2023/02/05 03:33:58;;;;;;;7.60;2.35;;;;;;;3.37;53.47;99888.34;5111399;27;20059;-92
2023/02/05 03:36:31;;;;;;;4.53;2.00;;;;;;;3.15;53.91;99860.75;5110470;28;20492;-93
2023/02/05 03:39:10;;;;;;;7.03;2.15;;;;;;;3.06;54.71;99900.88;5115039;27;20457;-93
2023/02/05 03:41:55;;;;;;;4.45;2.67;;;;;;;2.90;55.16;99890.88;5111641;27;20495;-93
2023/02/05 03:44:52;;;;;;;3.65;2.03;;;;;;;2.79;55.49;99895.00;5110853;27;20047;-93
2023/02/05 03:47:30;;;;;;;4.40;2.00;;;;;;;2.80;55.66;99902.94;5114358;27;20042;-92
2023/02/05 03:50:05;;;;;;;2.33;1.80;;;;;;;2.78;55.34;99898.50;5111467;27;20515;-93
2023/02/05 03:52:36;;;;;;;6.03;2.22;;;;;;;2.83;54.99;99904.75;5111367;27;20035;-92
2023/02/05 03:55:09;;;;;;;4.97;2.15;;;;;;;2.73;55.53;99901.00;5105327;27;20031;-93
2023/02/05 03:57:41;;;;;;;4.18;1.85;;;;;;;2.74;54.57;99894.03;5115721;27;20035;-92
2023/02/05 04:00:08;;;;;;;4.28;2.20;;;;;;;2.95;54.47;99928.66;5104326;28;20057;-90
2023/02/05 04:02:34;;;;;;;4.25;2.35;;;;;;;2.88;54.29;99913.59;5111400;27;20365;-93
2023/02/05 04:05:02;;;;;;;6.30;2.22;;;;;;;3.05;53.82;99921.84;5109350;28;20069;-93
2023/02/05 04:07:28;;;;;;;7.50;2.08;;;;;;;3.11;53.39;99923.75;5112816;27;20039;-93
2023/02/05 04:09:54;;;;;;;7.50;1.92;;;;;;;2.98;53.89;99910.31;5109487;27;20044;-92
2023/02/05 04:12:20;;;;;;;6.63;2.67;;;;;;;2.99;53.71;99921.72;5109281;27;20463;-91
2023/02/05 04:14:46;;;;;;;4.50;1.95;;;;;;;3.01;53.81;99917.38;5104366;27;20032;-91
2023/02/05 04:17:12;;;;;;;4.65;2.03;;;;;;;3.01;53.76;99914.75;5108502;27;20066;-92
2023/02/05 04:19:40;;;;;;;4.15;2.10;;;;;;;2.90;54.19;99911.91;5107241;27;20047;-92
2023/02/05 04:22:07;;;;;;;4.35;1.90;;;;;;;2.99;54.44;99932.22;5101400;28;20046;-95
2023/02/05 04:24:33;;;;;;;4.03;1.92;;;;;;;3.02;54.02;99921.81;5123241;27;20449;-90
2023/02/05 04:26:59;;;;;;;4.55;2.28;;;;;;;3.03;53.72;99915.69;5104496;27;20044;-92
2023/02/05 04:29:25;;;;;;;4.30;1.92;;;;;;;3.08;53.93;99919.31;5108699;27;20074;-93
2023/02/05 04:31:51;;;;;;;3.80;2.08;;;;;;;2.98;53.70;99909.44;5101233;28;20040;-92
2023/02/05 04:34:16;;;;;;;3.65;2.08;;;;;;;3.02;53.80;99920.06;5107943;28;20035;-93
2023/02/05 04:36:42;;;;;;;6.50;2.22;;;;;;;2.88;54.39;99901.38;5109340;27;20040;-90
2023/02/05 04:39:09;;;;;;;5.22;2.10;;;;;;;2.88;54.57;99910.97;5109559;27;20452;-93
2023/02/05 04:41:35;;;;;;;4.03;2.28;;;;;;;2.88;54.78;99921.47;5104840;27;20483;-90
2023/02/05 04:44:01;;;;;;;7.60;2.60;;;;;;;2.75;54.18;99893.16;5108685;27;20134;-92
2023/02/05 04:46:27;;;;;;;4.38;2.20;;;;;;;2.91;54.55;99918.94;5103725;27;20039;-90
2023/02/05 04:48:53;;;;;;;5.63;2.53;;;;;;;2.88;54.88;99929.34;5110172;27;20376;-92
2023/02/05 04:51:18;;;;;;;6.50;2.30;;;;;;;2.78;55.29;99922.16;5112779;27;20043;-90
2023/02/05 04:53:45;;;;;;;4.88;2.40;;;;;;;2.66;55.21;99901.72;5106078;27;20633;-93
2023/02/05 04:56:14;;;;;;;5.68;2.10;;;;;;;2.63;55.62;99915.69;5114047;27;20039;-92
2023/02/05 04:58:40;;;;;;;4.43;2.10;;;;;;;2.76;55.73;99951.00;5107422;27;20046;-91
2023/02/05 05:01:10;;;;;;;7.15;2.30;;;;;;;2.71;55.50;99935.97;5105727;28;20040;-94
2023/02/05 05:03:36;;;;;;;4.85;2.55;;;;;;;2.59;55.72;99908.56;5103483;27;20034;-92
2023/02/05 05:06:03;;;;;;;2.80;1.98;;;;;;;2.65;55.64;99929.72;5109337;27;20481;-92
2023/02/05 05:08:29;;;;;;;6.32;2.17;;;;;;;2.78;55.98;99954.53;5107045;27;20095;-94
2023/02/05 05:10:55;;;;;;;6.70;2.40;;;;;;;2.61;55.65;99930.50;5113768;27;20043;-93
2023/02/05 05:13:22;;;;;;;5.97;2.45;;;;;;;2.61;55.69;99924.38;5106594;27;20578;-93
2023/02/05 05:15:52;;;;;;;5.10;2.28;;;;;;;2.75;55.28;99938.69;5115273;27;20036;-92
2023/02/05 05:18:18;;;;;;;4.88;2.42;;;;;;;2.73;55.60;99935.16;5103213;28;20044;-92
2023/02/05 05:20:44;;;;;;;5.22;2.35;;;;;;;2.66;55.54;99934.13;5108372;27;20035;-90
2023/02/05 05:23:09;;;;;;;3.67;2.22;;;;;;;2.74;55.37;99943.94;5111021;27;20035;-92
2023/02/05 05:25:40;;;;;;;6.75;2.50;;;;;;;2.58;55.63;99927.81;5106214;27;20042;-92
2023/02/05 05:28:06;;;;;;;8.43;2.42;;;;;;;2.50;56.25;99921.50;5106495;27;20045;-93
2023/02/05 05:30:33;;;;;;;3.92;2.08;;;;;;;2.64;56.19;99951.56;5115734;27;20134;-92
2023/02/05 05:32:59;;;;;;;6.28;2.40;;;;;;;2.38;56.33;99908.94;5122811;27;20059;-92
2023/02/05 05:35:25;;;;;;;5.75;2.33;;;;;;;2.57;56.84;99957.53;5128121;27;20522;-91
2023/02/05 05:37:51;;;;;;;3.78;2.40;;;;;;;2.42;56.78;99941.41;5111607;27;20041;-92
2023/02/05 05:46:23;;;;;;;8.05;2.90;;;;;;;2.32;57.34;99949.91;5146054;27;20387;-91
2023/02/05 05:48:54;;;;;;;4.70;2.30;;;;;;;2.19;57.85;99936.50;5137240;27;20047;-93
2023/02/05 05:51:21;;;;;;;4.85;2.60;;;;;;;2.30;57.34;99951.59;5134837;27;20058;-95
2023/02/05 05:53:47;;;;;;;5.18;2.20;;;;;;;2.34;57.43;99950.84;5137737;27;20511;-92
2023/02/05 05:56:13;;;;;;;5.25;2.72;;;;;;;2.14;57.98;99922.34;5136193;27;20114;-93
2023/02/05 05:58:39;;;;;;;5.05;2.25;;;;;;;2.09;58.23;99934.47;5136523;27;20071;-94
2023/02/05 06:01:06;;;;;;;5.28;2.28;;;;;;;2.14;58.54;99969.59;5133243;27;20043;-93
2023/02/05 06:03:33;;;;;;;4.78;2.42;;;;;;;1.97;59.27;99949.91;5149859;27;20035;-92
2023/02/05 06:06:00;;;;;;;6.75;2.28;;;;;;;2.03;58.84;99958.81;5133190;27;20043;-95
2023/02/05 06:08:25;;;;;;;13.48;3.28;;;;;;;1.86;59.21;99933.88;5137479;27;20035;-92
2023/02/05 06:10:51;;;;;;;6.10;2.35;;;;;;;1.91;58.83;99945.41;5135659;27;20457;-92
2023/02/05 06:13:17;;;;;;;4.55;2.40;;;;;;;1.91;58.81;99942.78;5138537;27;20556;-91
2023/02/05 06:15:43;;;;;;;11.70;3.25;;;;;;;2.00;58.74;99952.63;5137215;27;20031;-92
2023/02/05 06:18:09;;;;;;;4.68;2.67;;;;;;;1.98;58.47;99944.69;5133559;27;20484;-93
2023/02/05 06:20:36;;;;;;;3.95;2.30;;;;;;;2.19;58.22;99964.44;5136402;27;20035;-94
2023/02/05 06:23:02;;;;;;;4.95;2.47;;;;;;;1.98;58.04;99943.81;5132317;27;20142;-93
2023/02/05 06:25:28;;;;;;;6.82;2.30;;;;;;;2.06;58.62;99965.91;5134434;27;20107;-95
2023/02/05 06:27:54;;;;;;;3.50;2.20;;;;;;;1.99;58.29;99943.84;5135511;27;20038;-94
2023/02/05 06:30:20;;;;;;;5.40;2.47;;;;;;;2.03;58.21;99953.56;5136884;27;20051;-93
2023/02/05 06:32:45;;;;;;;10.15;2.30;;;;;;;2.14;58.40;99974.84;5133343;27;20118;-93
2023/02/05 06:35:11;;;;;;;5.65;2.55;;;;;;;2.07;58.17;99970.28;5137877;27;20039;-95
2023/02/05 06:37:39;;;;;;;5.53;2.47;;;;;;;2.13;57.90;99957.34;5131745;27;20121;-94
2023/02/05 06:40:05;;;;;;;3.67;2.38;;;;;;;2.29;58.31;99982.22;5134002;27;20047;-93
2023/02/05 06:42:31;;;;;;;6.75;2.58;;;;;;;2.30;57.92;99977.84;5132746;27;20036;-94
2023/02/05 06:44:57;;;;;;;5.50;2.50;;;;;;;2.32;57.84;99977.06;5132747;27;20370;-93
2023/02/05 06:47:23;;;;;;;5.55;2.42;;;;;;;2.33;58.29;99985.81;5130685;27;20080;-93
2023/02/05 06:49:48;;;;;;;4.18;2.67;;;;;;;2.14;58.13;99959.09;5135102;27;20489;-93
2023/02/05 06:52:15;;;;;;;2.92;2.15;;;;;;;2.28;57.61;99967.34;5133487;27;20040;-92
2023/02/05 06:54:43;;;;;;;6.43;2.70;;;;;;;2.41;58.33;99979.03;5132642;27;20028;-91
2023/02/05 06:57:09;;;;;;;5.10;2.70;;;;;;;2.42;57.63;99986.94;5121876;27;20106;-92
2023/02/05 06:59:35;;;;;;;7.07;2.70;;;;;;;2.45;57.64;99970.34;5120227;27;20035;-93
2023/02/05 07:02:01;;;;;;;6.93;2.60;;;;;;;2.61;57.57;99982.16;5122263;27;20136;-92
2023/02/05 07:04:29;;;;;;;6.53;2.50;;;;;;;2.59;57.36;99970.72;5124205;27;20040;-94
2023/02/05 07:06:55;;;;;;;6.05;2.38;;;;;;;2.70;57.21;99976.22;5120400;27;20039;-93
2023/02/05 07:09:22;;;;;;;4.25;2.40;;;;;;;2.74;57.28;99983.34;5120773;27;20042;-94
2023/02/05 07:11:49;;;;;;;5.60;2.40;;;;;;;2.91;57.48;99991.59;5117325;27;20035;-93
2023/02/05 07:14:15;;;;;;;4.57;2.60;;;;;;;2.88;57.25;99992.41;5118261;27;20044;-93
2023/02/05 07:16:41;;;;;;;6.57;2.30;;;;;;;3.00;56.45;99995.34;5117596;27;20135;-93
2023/02/05 07:19:07;;;;;;;5.47;2.20;;;;;;;2.93;56.33;99969.78;5116142;28;20492;-92
2023/02/05 07:21:33;;;;;;;8.55;2.42;;;;;;;3.19;56.61;100006.25;5120988;27;20046;-92
2023/02/05 07:23:59;;;;;;;4.70;2.35;;;;;;;3.08;56.05;99977.13;5124253;27;20134;-94
2023/02/05 07:26:25;;;;;;;3.45;2.25;;;;;;;3.27;56.50;99986.28;5121230;27;20035;-92
2023/02/05 07:28:52;;;;;;;4.90;2.50;;;;;;;3.36;55.58;99998.75;5118198;27;20096;-92
2023/02/05 07:31:18;;;;;;;5.13;2.40;;;;;;;3.42;55.65;99991.00;5117128;27;20034;-93
2023/02/05 07:33:45;;;;;;;4.38;2.20;;;;;;;3.42;55.26;99983.09;5116228;27;20096;-94
2023/02/05 07:36:15;;;;;;;3.40;2.30;;;;;;;3.47;56.14;99992.88;5125654;27;20040;-93
2023/02/05 07:38:41;;;;;;;5.90;2.53;;;;;;;3.56;55.82;100002.69;5119196;27;20040;-94
2023/02/05 07:41:09;;;;;;;4.95;2.30;;;;;;;3.82;55.10;100018.13;5115568;28;20062;-92
2023/02/05 07:43:35;;;;;;;6.45;2.40;;;;;;;3.93;54.93;100024.50;5119231;27;20039;-93
2023/02/05 07:46:05;;;;;;;7.72;3.13;;;;;;;3.97;55.17;100013.19;5117958;27;20044;-94
2023/02/05 07:48:31;;;;;;;5.32;2.90;;;;;;;4.14;54.50;100020.50;5121011;27;20512;-93
2023/02/05 07:50:57;;;;;;;5.95;2.63;;;;;;;4.08;53.63;100006.38;5119374;27;20423;-91
2023/02/05 07:53:23;;;;;;;6.85;3.00;;;;;;;4.22;53.13;100027.66;5119965;27;20047;-91
2023/02/05 07:55:49;;;;;;;4.68;2.45;;;;;;;4.30;53.41;100006.75;5121938;27;20092;-92
2023/02/05 07:58:15;;;;;;;5.13;2.42;;;;;;;4.58;52.86;100038.88;5119480;27;20048;-92
2023/02/05 08:00:41;;;;;;;5.50;2.42;;;;;;;4.41;52.32;100018.38;5121957;27;20511;-94
2023/02/05 08:03:09;;;;;;;5.15;2.50;;;;;;;4.56;52.17;100020.38;5118056;27;20146;-93
2023/02/05 08:05:35;;;;;;;6.60;2.53;;;;;;;4.74;52.32;100033.84;5119011;27;20059;-93
2023/02/05 08:08:02;;;;;;;4.70;2.45;;;;;;;4.72;52.50;100026.78;5114950;27;20028;-92
2023/02/05 08:10:28;;;;;;;7.22;2.83;;;;;;;4.90;51.30;100037.66;5117447;27;20036;-91
2023/02/05 08:12:54;;;;;;;4.70;2.22;;;;;;;5.05;50.50;100044.00;5116319;27;20516;-93
2023/02/05 08:15:20;;;;;;;4.90;2.35;;;;;;;4.97;50.84;100038.63;5116083;27;20035;-93
2023/02/05 08:17:45;;;;;;;7.93;2.42;;;;;;;4.80;51.06;100009.38;5119617;27;20047;-91
2023/02/05 08:20:13;;;;;;;6.15;2.50;;;;;;;4.94;51.20;100030.66;5118659;27;20032;-92
2023/02/05 08:22:41;;;;;;;9.00;2.58;;;;;;;5.16;50.84;100002.88;5118121;27;20039;-91
2023/02/05 08:25:10;;;;;;;4.45;2.70;;;;;;;5.42;49.89;100028.72;5119375;27;20031;-94
2023/02/05 08:27:39;;;;;;;5.20;2.42;;;;;;;5.29;50.73;100009.22;5119619;27;20484;-92
2023/02/05 08:30:07;;;;;;;8.10;2.75;;;;;;;5.55;50.22;100025.38;5116678;27;20047;-94
2023/02/05 08:32:33;;;;;;;7.78;2.72;;;;;;;5.39;50.20;100021.66;5115363;27;20039;-91
2023/02/05 08:34:59;;;;;;;6.07;2.63;;;;;;;5.60;49.31;100004.38;5116310;27;20073;-94
2023/02/05 08:37:27;;;;;;;10.25;3.00;;;;;;;5.76;48.70;100025.66;5117427;27;20039;-91
2023/02/05 08:39:52;;;;;;;5.00;2.72;;;;;;;5.74;49.29;99997.50;5116164;27;20493;-93
2023/02/05 08:42:18;;;;;;;4.53;2.35;;;;;;;5.65;49.17;100005.31;5117985;27;20042;-95
2023/02/05 08:44:44;;;;;;;5.40;2.47;;;;;;;5.54;49.77;99984.94;5115953;27;20039;-95
2023/02/05 08:47:10;;;;;;;6.05;2.83;;;;;;;5.80;49.97;99992.28;5118946;27;20112;-90
2023/02/05 08:49:36;;;;;;;4.82;2.47;;;;;;;5.83;50.55;99994.94;5119020;27;20104;-92
2023/02/05 08:52:02;;;;;;;4.65;2.65;;;;;;;5.96;49.81;99975.81;5122984;27;20085;-92
2023/02/05 08:54:29;;;;;;;4.40;2.25;;;;;;;6.14;50.41;99990.06;5125215;27;20059;-93
2023/02/05 08:56:56;;;;;;;6.18;2.50;;;;;;;6.01;48.08;99960.00;5115296;28;20489;-94
2023/02/05 08:59:22;;;;;;;7.50;2.53;;;;;;;6.32;48.56;99999.94;5118423;27;20047;-91
2023/02/05 09:01:48;;;;;;;2.72;2.10;;;;;;;6.19;48.77;99987.47;5117157;27;20068;-93
2023/02/05 09:04:14;;;;;;;5.35;2.72;;;;;;;6.35;48.50;100008.78;5118333;27;20070;-94
2023/02/05 09:06:41;;;;;;;4.68;2.53;;;;;;;6.49;48.00;100011.53;5115724;27;20047;-96
2023/02/05 09:09:07;;;;;;;8.35;2.53;;;;;;;6.32;48.29;99992.00;5120636;27;20055;-94
2023/02/05 09:11:34;;;;;;;6.07;2.55;;;;;;;6.09;48.48;99983.84;5117484;27;20494;-95
2023/02/05 09:14:00;;;;;;;8.80;3.08;;;;;;;6.25;48.04;99985.78;5115839;27;20040;-93
2023/02/05 09:16:26;;;;;;;9.88;3.35;;;;;;;6.51;48.56;100012.44;5116460;27;20047;-93
2023/02/05 09:18:53;;;;;;;7.68;2.92;;;;;;;6.43;48.16;100011.47;5120247;27;20032;-94
2023/02/05 09:21:19;;;;;;;4.90;2.55;;;;;;;6.51;47.95;99998.34;5118830;27;20563;-91
2023/02/05 09:23:44;;;;;;;8.80;3.22;;;;;;;6.85;48.29;100009.19;5124797;27;20073;-93
2023/02/05 09:26:10;;;;;;;6.32;3.08;;;;;;;6.67;47.87;100018.75;5121424;27;20050;-95
2023/02/05 09:28:37;;;;;;;6.25;2.15;;;;;;;6.87;48.92;100025.97;5120938;27;20050;-93
2023/02/05 09:31:07;;;;;;;6.65;2.92;;;;;;;6.80;46.97;99998.59;5117720;27;20133;-93
2023/02/05 09:33:32;;;;;;;;;;;;;;;7.08;46.89;100022.59;5116636;27;20124;-93
2023/02/05 09:36:04;;;;;;;7.50;2.80;;;;;;;7.10;47.16;100008.50;5120810;27;20400;-93
2023/02/05 09:38:30;;;;;;;8.75;3.80;;;;;;;7.27;47.10;100016.56;5117069;27;20039;-94
2023/02/05 09:41:00;;;;;;;11.48;4.60;;;;;;;7.31;46.65;100026.28;5118969;27;20381;-93
2023/02/05 09:43:42;;;;;;;8.55;3.67;;;;;;;7.24;45.98;100002.41;5118348;28;20043;-93
2023/02/05 09:46:14;;;;;;;23.60;7.65;;;;;;;7.39;45.23;100014.00;5116202;28;20043;-95
2023/02/05 09:48:51;;;;;;;17.25;6.70;;;;;;;7.46;45.72;100022.84;5115412;28;20131;-93
2023/02/05 09:51:21;;;;;;;9.50;5.03;;;;;;;7.54;45.50;100026.41;5114668;28;20043;-93
2023/02/05 09:53:52;;;;;;;13.40;5.50;;;;;;;7.59;44.72;100022.03;5115753;28;20138;-93
2023/02/05 09:56:20;;;;;;;17.85;7.30;;;;;;;7.60;46.02;100021.16;5116750;28;20053;-93
2023/02/05 09:58:50;;;;;;;23.08;9.30;;;;;;;7.51;45.52;100021.09;5120649;28;20427;-93
2023/02/05 10:01:21;;;;;;;7.70;3.80;;;;;;;7.39;45.97;100018.38;5113822;28;20040;-93
2023/02/05 10:03:52;;;;;;;6.35;3.00;;;;;;;7.22;46.07;100014.75;5117636;28;20044;-93
2023/02/05 10:06:54;;;;;;;7.50;3.25;;;;;;;7.56;45.83;100037.00;5116745;28;20051;-92
2023/02/05 10:09:43;;;;;;;8.00;3.88;;;;;;;7.70;45.78;100026.47;5047072;28;20509;-92
2023/02/05 10:12:23;;;;;;;6.95;2.40;;;;;;;7.43;44.46;100014.00;5046059;28;20036;-94
2023/02/05 10:15:02;;;;;;;8.68;3.20;;;;;;;7.47;45.00;100015.78;5044250;28;20064;-94
2023/02/05 10:17:42;;;;;;;5.97;3.20;;;;;;;7.66;44.95;100032.66;5048226;28;20054;-94
2023/02/05 10:20:29;;;;;;;8.20;3.53;;;;;;;7.84;45.94;100022.13;5047454;28;20044;-95
2023/02/05 10:23:08;;;;;;;6.18;3.30;;;;;;;7.96;45.53;100014.25;5051690;28;20037;-93
2023/02/05 10:25:47;;;;;;;7.38;2.88;;;;;;;7.81;44.83;99990.38;5044153;28;20037;-93
2023/02/05 10:28:43;;;;;;;7.72;3.55;;;;;;;8.09;44.89;100014.28;5042757;28;20041;-93
2023/02/05 10:31:21;;;;;;;8.05;3.45;;;;;;;8.10;44.63;99994.88;5048403;28;20045;-93
2023/02/05 10:33:50;;;;;;;4.50;2.33;;;;;;;8.19;43.74;100001.06;5052443;28;20132;-94
2023/02/05 10:36:20;;;;;;;5.25;2.60;;;;;;;7.97;44.03;99986.00;5050575;28;20041;-93
2023/02/05 10:38:49;;;;;;;6.90;3.15;;;;;;;8.00;44.85;99993.94;5048845;28;20494;-93
2023/02/05 10:41:25;;;;;;;6.18;2.70;;;;;;;8.12;44.14;99987.81;5053804;28;20127;-93
2023/02/05 10:43:56;;;;;;;5.70;2.60;;;;;;;8.13;43.73;100005.44;5052599;28;20102;-94
2023/02/05 10:46:30;;;;;;;6.00;2.97;;;;;;;8.05;43.89;99989.56;5091217;27;20458;-93
2023/02/05 10:49:00;;;;;;;7.40;2.42;;;;;;;8.00;44.45;99978.03;5121473;27;20047;-93
2023/02/05 10:51:32;;;;;;;7.07;3.83;;;;;;;8.11;44.84;100002.81;5122769;27;20039;-94
2023/02/05 10:53:59;;;;;;;5.60;3.13;;;;;;;8.06;45.89;99991.31;5122468;27;20088;-94
2023/02/05 10:56:25;;;;;;;6.60;3.40;;;;;;;8.13;45.11;99998.41;5122653;27;20040;-93
2023/02/05 10:58:54;;;;;;;6.65;2.88;;;;;;;7.78;44.51;99995.63;5118933;27;20039;-92
2023/02/05 11:01:22;;;;;;;10.30;3.33;;;;;;;7.61;45.13;99999.09;5119061;27;20059;-94
2023/02/05 11:04:00;;;;;;;5.70;2.78;;;;;;;7.56;44.96;99984.94;5119527;27;20279;-93
2023/02/05 11:06:30;;;;;;;6.05;3.47;;;;;;;7.31;45.67;99978.66;5118825;27;20062;-94
2023/02/05 11:08:56;;;;;;;9.88;4.57;;;;;;;7.41;45.65;100009.56;5120327;27;20512;-94
2023/02/05 11:11:26;;;;;;;7.72;3.20;;;;;;;7.46;45.73;100003.41;5118543;27;20059;-92
2023/02/05 11:13:56;;;;;;;5.80;2.70;;;;;;;7.38;45.33;99975.16;5125095;27;20039;-93
2023/02/05 11:16:23;;;;;;;12.95;5.20;;;;;;;7.15;45.77;99969.72;5124794;27;20027;-94
2023/02/05 11:19:00;;;;;;;7.60;3.25;;;;;;;7.27;45.87;99968.06;5121838;27;20059;-92
2023/02/05 11:21:45;;;;;;;7.43;2.65;;;;;;;7.14;45.76;100009.44;5119687;28;20046;-93
2023/02/05 11:24:22;;;;;;;5.05;2.90;;;;;;;7.39;45.46;99987.53;5118721;27;20062;-93
2023/02/05 11:26:48;;;;;;;3.45;2.28;;;;;;;7.10;45.23;99978.53;5126734;27;20044;-92
2023/02/05 11:29:19;;;;;;;6.43;3.45;;;;;;;7.25;45.72;99996.25;5128977;27;20039;-94
2023/02/05 11:31:45;;;;;;;5.50;2.70;;;;;;;7.42;45.31;99970.78;5117631;27;20527;-93
2023/02/05 11:34:16;;;;;;;4.82;2.30;;;;;;;7.60;44.70;99977.91;5121989;27;20138;-93
2023/02/05 11:36:48;;;;;;;5.47;3.25;;;;;;;7.60;45.02;99968.19;5117805;27;20040;-94
2023/02/05 11:39:29;;;;;;;11.85;3.80;;;;;;;7.59;44.74;99941.75;5135651;27;20036;-94
2023/02/05 11:41:57;;;;;;;7.13;3.00;;;;;;;7.73;44.53;99965.63;5124013;27;20063;-93
2023/02/05 11:44:25;;;;;;;6.45;3.20;;;;;;;7.62;44.95;99952.34;5124109;27;20409;-95
2023/02/05 11:46:55;;;;;;;7.15;3.80;;;;;;;7.90;45.36;99963.91;5123636;27;20145;-92
2023/02/05 11:49:30;;;;;;;9.70;4.43;;;;;;;7.89;44.46;99935.63;5129181;27;20044;-93
2023/02/05 11:51:57;;;;;;;6.85;3.85;;;;;;;7.87;44.87;99929.47;5121718;27;20048;-93